Time,TemperatureF,DewpointF,PressureIn,WindDirection,WindDirectionDegrees,WindSpeedMPH,WindSpeedGustMPH,Humidity,HourlyPrecipIn,Conditions,Clouds,dailyrainin,SoftwareType,DateUTC
2013-04-23 00:00:00,61.8,46.4,29.50,NW,315,0.0,0.0,57,0.00,,,0.00,VWS V14.01,2013-04-23 07:00:00,
2013-04-23 00:03:00,58.5,42.4,29.42,NNW,340,3.0,10.0,55,0.00,,,0.00,VWS V14.01,2013-04-23 07:03:00,
2013-04-23 00:08:00,58.5,41.9,29.42,NNW,340,3.0,10.0,54,0.00,,,0.00,VWS V14.01,2013-04-23 07:08:00,
2013-04-23 00:13:00,58.7,42.1,29.42,NNW,340,2.0,10.0,54,0.00,,,0.00,VWS V14.01,2013-04-23 07:13:00,
2013-04-23 00:18:00,58.8,41.7,29.42,NNW,340,2.0,10.0,53,0.00,,,0.00,VWS V14.01,2013-04-23 07:18:00,
2013-04-23 00:23:00,58.7,41.6,29.42,NNW,340,2.0,10.0,53,0.00,,,0.00,VWS V14.01,2013-04-23 07:23:00,
2013-04-23 00:28:00,58.4,41.3,29.42,NNW,340,2.0,10.0,53,0.00,,,0.00,VWS V14.01,2013-04-23 07:28:00,
2013-04-23 00:30:00,60.5,42.8,29.50,NW,315,0.0,0.0,52,0.00,,,0.00,VWS V14.01,2013-04-23 07:30:00,
2013-04-23 00:33:00,58.9,41.3,29.43,North,354,4.0,10.0,52,0.00,,,0.00,VWS V14.01,2013-04-23 07:33:00,
2013-04-23 00:38:00,58.9,41.3,29.42,NNW,342,2.0,10.0,52,0.00,,,0.00,VWS V14.01,2013-04-23 07:38:00,
2013-04-23 00:43:00,59.4,40.2,29.42,NNW,332,3.0,10.0,49,0.00,,,0.00,VWS V14.01,2013-04-23 07:43:00,
2013-04-23 00:48:00,61.1,33.3,29.42,North,355,5.0,11.0,35,0.00,,,0.00,VWS V14.01,2013-04-23 07:48:00,
2013-04-23 00:53:00,64.3,31.4,29.42,North,351,4.0,11.0,29,0.00,,,0.00,VWS V14.01,2013-04-23 07:53:00,
2013-04-23 00:58:00,66.5,32.4,29.42,NNW,347,3.0,11.0,28,0.00,,,0.00,VWS V14.01,2013-04-23 07:58:00,
2013-04-23 01:00:00,59.7,41.0,29.50,NW,315,0.0,2.0,50,0.00,,,0.00,VWS V14.01,2013-04-23 08:00:00,
2013-04-23 01:03:00,67.1,34.7,29.42,North,358,2.0,11.0,30,0.00,,,0.00,VWS V14.01,2013-04-23 08:03:00,
2013-04-23 01:08:00,66.5,34.1,29.42,North,350,3.0,11.0,30,0.00,,,0.00,VWS V14.01,2013-04-23 08:08:00,
2013-04-23 01:13:00,66.5,31.5,29.42,NNW,344,8.0,11.0,27,0.00,,,0.00,VWS V14.01,2013-04-23 08:13:00,
2013-04-23 01:18:00,67.9,29.8,29.42,NNW,347,3.0,11.0,24,0.00,,,0.00,VWS V14.01,2013-04-23 08:18:00,
2013-04-23 01:23:00,68.7,29.4,29.42,North,1,1.0,11.0,23,0.00,,,0.00,VWS V14.01,2013-04-23 08:23:00,
2013-04-23 01:28:00,69.1,28.7,29.42,NNW,346,3.0,11.0,22,0.00,,,0.00,VWS V14.01,2013-04-23 08:28:00,
2013-04-23 01:30:00,59.5,39.8,29.50,NW,315,0.0,2.0,48,0.00,,,0.00,VWS V14.01,2013-04-23 08:30:00,
2013-04-23 01:33:00,69.3,28.9,29.42,NNW,348,2.0,11.0,22,0.00,,,0.00,VWS V14.01,2013-04-23 08:33:00,
2013-04-23 01:38:00,69.5,27.9,29.42,North,349,3.0,11.0,21,0.00,,,0.00,VWS V14.01,2013-04-23 08:38:00,
2013-04-23 01:43:00,69.5,27.9,29.42,North,349,2.0,11.0,21,0.00,,,0.00,VWS V14.01,2013-04-23 08:43:00,
2013-04-23 01:48:00,69.4,27.8,29.42,North,353,0.0,11.0,21,0.00,,,0.00,VWS V14.01,2013-04-23 08:48:00,
2013-04-23 01:53:00,69.2,26.5,29.41,North,358,0.0,11.0,20,0.00,,,0.00,VWS V14.01,2013-04-23 08:53:00,
2013-04-23 01:58:00,69.2,26.5,29.41,North,358,0.0,11.0,20,0.00,,,0.00,VWS V14.01,2013-04-23 08:58:00,
2013-04-23 02:00:00,59.4,40.8,29.50,NW,315,0.0,0.0,50,0.00,,,0.00,VWS V14.01,2013-04-23 09:00:00,
2013-04-23 02:03:00,69.1,26.4,29.42,NW,326,0.0,11.0,20,0.00,,,0.00,VWS V14.01,2013-04-23 09:03:00,
2013-04-23 02:08:00,69.3,26.5,29.41,NNW,336,3.0,11.0,20,0.00,,,0.00,VWS V14.01,2013-04-23 09:08:00,
2013-04-23 02:13:00,69.6,25.5,29.41,SW,218,0.0,11.0,19,0.00,,,0.00,VWS V14.01,2013-04-23 09:13:00,
2013-04-23 02:18:00,69.4,25.4,29.41,SW,218,0.0,11.0,19,0.00,,,0.00,VWS V14.01,2013-04-23 09:18:00,
2013-04-23 02:23:00,69.1,26.4,29.41,SW,218,0.0,11.0,20,0.00,,,0.00,VWS V14.01,2013-04-23 09:23:00,
2013-04-23 02:28:00,68.6,26.0,29.41,NNE,16,0.0,11.0,20,0.00,,,0.00,VWS V14.01,2013-04-23 09:28:00,
2013-04-23 02:30:00,58.7,42.1,29.50,NW,315,0.0,0.0,54,0.00,,,0.00,VWS V14.01,2013-04-23 09:30:00,
2013-04-23 02:33:00,68.1,25.5,29.41,NNE,15,1.0,11.0,20,0.00,,,0.00,VWS V14.01,2013-04-23 09:33:00,
2013-04-23 02:38:00,67.8,26.5,29.41,NNE,15,0.0,11.0,21,0.00,,,0.00,VWS V14.01,2013-04-23 09:38:00,
2013-04-23 02:43:00,67.6,27.4,29.42,NNE,15,0.0,11.0,22,0.00,,,0.00,VWS V14.01,2013-04-23 09:43:00,
2013-04-23 02:48:00,66.5,28.6,29.41,NNE,15,0.0,11.0,24,0.00,,,0.00,VWS V14.01,2013-04-23 09:48:00,
2013-04-23 02:53:00,65.2,30.4,29.42,NNE,15,0.0,11.0,27,0.00,,,0.00,VWS V14.01,2013-04-23 09:53:00,
2013-04-23 02:58:00,64.2,26.7,29.42,NNE,15,0.0,11.0,24,0.00,,,0.00,VWS V14.01,2013-04-23 09:58:00,
2013-04-23 03:00:00,57.4,41.4,29.49,NW,315,0.0,0.0,55,0.00,,,0.00,VWS V14.01,2013-04-23 10:00:00,
2013-04-23 03:03:00,63.7,29.1,29.41,NNE,15,0.0,11.0,27,0.00,,,0.00,VWS V14.01,2013-04-23 10:03:00,
2013-04-23 03:08:00,63.0,31.1,29.41,NNE,15,0.0,11.0,30,0.00,,,0.00,VWS V14.01,2013-04-23 10:08:00,
2013-04-23 03:13:00,61.8,27.5,29.42,NNE,15,0.0,11.0,27,0.00,,,0.00,VWS V14.01,2013-04-23 10:13:00,
2013-04-23 03:18:00,61.4,28.9,29.42,NNE,15,0.0,11.0,29,0.00,,,0.00,VWS V14.01,2013-04-23 10:18:00,
2013-04-23 03:23:00,61.6,29.1,29.42,NNE,15,0.0,11.0,29,0.00,,,0.00,VWS V14.01,2013-04-23 10:23:00,
2013-04-23 03:28:00,61.5,29.0,29.42,NNE,14,0.0,11.0,29,0.00,,,0.00,VWS V14.01,2013-04-23 10:28:00,
2013-04-23 03:30:00,56.8,40.8,29.48,NW,315,0.0,0.0,55,0.00,,,0.00,VWS V14.01,2013-04-23 10:30:00,
2013-04-23 03:33:00,61.4,32.1,29.42,NNE,14,0.0,11.0,33,0.00,,,0.00,VWS V14.01,2013-04-23 10:33:00,
2013-04-23 03:38:00,60.8,30.0,29.42,NNE,14,0.0,11.0,31,0.00,,,0.00,VWS V14.01,2013-04-23 10:38:00,
2013-04-23 03:43:00,61.6,27.3,29.42,NNE,14,0.0,11.0,27,0.00,,,0.00,VWS V14.01,2013-04-23 10:43:00,
2013-04-23 03:48:00,62.1,31.9,29.42,NNE,14,0.0,11.0,32,0.00,,,0.00,VWS V14.01,2013-04-23 10:48:00,
2013-04-23 03:53:00,60.7,30.7,29.42,NNE,13,0.0,11.0,32,0.00,,,0.00,VWS V14.01,2013-04-23 10:53:00,
2013-04-23 03:58:00,60.1,30.2,29.42,NNE,13,0.0,11.0,32,0.00,,,0.00,VWS V14.01,2013-04-23 10:58:00,
2013-04-23 04:00:00,57.2,40.7,29.49,NW,315,0.0,0.0,54,0.00,,,0.00,VWS V14.01,2013-04-23 11:00:00,
2013-04-23 04:03:00,61.4,27.1,29.42,ENE,71,0.0,11.0,27,0.00,,,0.00,VWS V14.01,2013-04-23 11:03:00,
2013-04-23 04:08:00,63.0,27.6,29.42,ENE,70,0.0,11.0,26,0.00,,,0.00,VWS V14.01,2013-04-23 11:08:00,
2013-04-23 04:13:00,64.4,26.9,29.42,ENE,73,0.0,11.0,24,0.00,,,0.00,VWS V14.01,2013-04-23 11:13:00,
2013-04-23 04:18:00,65.2,24.3,29.42,ENE,73,0.0,11.0,21,0.00,,,0.00,VWS V14.01,2013-04-23 11:18:00,
2013-04-23 04:23:00,66.0,25.0,29.42,NE,44,3.0,11.0,21,0.00,,,0.00,VWS V14.01,2013-04-23 11:23:00,
2013-04-23 04:28:00,66.5,25.4,29.42,ENE,75,2.0,11.0,21,0.00,,,0.00,VWS V14.01,2013-04-23 11:28:00,
2013-04-23 04:30:00,55.8,43.0,29.48,NW,315,0.0,2.0,62,0.00,,,0.00,VWS V14.01,2013-04-23 11:30:00,
2013-04-23 04:33:00,66.6,25.5,29.42,ENE,75,0.0,11.0,21,0.00,,,0.00,VWS V14.01,2013-04-23 11:33:00,
2013-04-23 04:39:00,66.4,25.3,29.43,ENE,75,1.0,11.0,21,0.00,,,0.00,VWS V14.01,2013-04-23 11:39:00,
2013-04-23 04:44:00,66.3,25.2,29.43,ENE,75,0.0,11.0,21,0.00,,,0.00,VWS V14.01,2013-04-23 11:44:00,
2013-04-23 04:49:00,66.2,25.1,29.43,ENE,75,0.0,11.0,21,0.00,,,0.00,VWS V14.01,2013-04-23 11:49:00,
2013-04-23 04:54:00,66.0,25.0,29.43,ENE,75,0.0,11.0,21,0.00,,,0.00,VWS V14.01,2013-04-23 11:54:00,
2013-04-23 04:59:00,64.7,25.0,29.43,NNE,12,0.0,11.0,22,0.00,,,0.00,VWS V14.01,2013-04-23 11:59:00,
2013-04-23 05:00:00,55.5,41.4,29.48,NW,315,1.0,5.0,59,0.00,,,0.00,VWS V14.01,2013-04-23 12:00:00,
2013-04-23 05:04:00,63.5,27.1,29.43,North,10,0.0,11.0,25,0.00,,,0.00,VWS V14.01,2013-04-23 12:04:00,
2013-04-23 05:09:00,62.2,26.0,29.43,North,9,0.0,11.0,25,0.00,,,0.00,VWS V14.01,2013-04-23 12:09:00,
2013-04-23 05:14:00,62.6,25.3,29.43,NNE,22,0.0,11.0,24,0.00,,,0.00,VWS V14.01,2013-04-23 12:14:00,
2013-04-23 05:19:00,63.3,25.9,29.43,NNE,22,0.0,11.0,24,0.00,,,0.00,VWS V14.01,2013-04-23 12:19:00,
2013-04-23 05:24:00,63.6,26.2,29.43,NNE,22,0.0,11.0,24,0.00,,,0.00,VWS V14.01,2013-04-23 12:24:00,
2013-04-23 05:29:00,63.7,25.2,29.43,NNE,20,0.0,11.0,23,0.00,,,0.00,VWS V14.01,2013-04-23 12:29:00,
2013-04-23 05:30:00,56.8,42.2,29.48,NW,315,0.0,0.0,58,0.00,,,0.00,VWS V14.01,2013-04-23 12:30:00,
2013-04-23 05:34:00,64.3,24.7,29.44,NNE,28,0.0,11.0,22,0.00,,,0.00,VWS V14.01,2013-04-23 12:34:00,
2013-04-23 05:39:00,64.4,23.6,29.44,ENE,70,0.0,11.0,21,0.00,,,0.00,VWS V14.01,2013-04-23 12:39:00,
2013-04-23 05:44:00,64.5,22.6,29.44,ENE,69,0.0,11.0,20,0.00,,,0.00,VWS V14.01,2013-04-23 12:44:00,
2013-04-23 05:49:00,63.6,26.2,29.44,ENE,62,2.0,11.0,24,0.00,,,0.00,VWS V14.01,2013-04-23 12:49:00,
2013-04-23 05:54:00,61.1,23.0,29.44,NE,44,0.0,11.0,23,0.00,,,0.00,VWS V14.01,2013-04-23 12:54:00,
2013-04-23 05:59:00,62.3,21.9,29.44,ESE,116,2.0,11.0,21,0.00,,,0.00,VWS V14.01,2013-04-23 12:59:00,
2013-04-23 06:00:00,56.9,42.7,29.48,NW,315,0.0,3.0,59,0.00,,,0.00,VWS V14.01,2013-04-23 13:00:00,
2013-04-23 06:04:00,63.5,22.9,29.45,ESE,116,0.0,11.0,21,0.00,,,0.00,VWS V14.01,2013-04-23 13:04:00,
2013-04-23 06:09:00,64.2,23.5,29.45,ESE,116,0.0,11.0,21,0.00,,,0.00,VWS V14.01,2013-04-23 13:09:00,
2013-04-23 06:14:00,64.4,23.6,29.45,ESE,116,2.0,11.0,21,0.00,,,0.00,VWS V14.01,2013-04-23 13:14:00,
2013-04-23 06:19:00,64.7,21.5,29.45,ESE,117,0.0,11.0,19,0.00,,,0.00,VWS V14.01,2013-04-23 13:19:00,
2013-04-23 06:24:00,64.9,21.7,29.45,ESE,117,1.0,11.0,19,0.00,,,0.00,VWS V14.01,2013-04-23 13:24:00,
2013-04-23 06:29:00,65.0,19.2,29.45,ESE,112,0.0,11.0,17,0.00,,,0.00,VWS V14.01,2013-04-23 13:29:00,
2013-04-23 06:30:00,56.0,42.3,29.48,NW,315,1.0,4.0,60,0.00,,,0.00,VWS V14.01,2013-04-23 13:30:00,
2013-04-23 06:34:00,65.2,19.3,29.45,ESE,113,0.0,11.0,17,0.00,,,0.00,VWS V14.01,2013-04-23 13:34:00,
2013-04-23 06:39:00,65.1,19.2,29.45,ESE,110,0.0,11.0,17,0.00,,,0.00,VWS V14.01,2013-04-23 13:39:00,
2013-04-23 06:44:00,65.1,20.6,29.45,ESE,111,0.0,11.0,18,0.00,,,0.00,VWS V14.01,2013-04-23 13:44:00,
2013-04-23 06:49:00,65.1,21.9,29.45,ESE,110,0.0,11.0,19,0.00,,,0.00,VWS V14.01,2013-04-23 13:49:00,
2013-04-23 06:54:00,65.0,21.8,29.46,ESE,110,0.0,11.0,19,0.00,,,0.00,VWS V14.01,2013-04-23 13:54:00,
2013-04-23 06:59:00,65.1,23.1,29.46,East,100,0.0,11.0,20,0.00,,,0.00,VWS V14.01,2013-04-23 13:59:00,
2013-04-23 07:00:00,56.0,41.9,29.48,NW,315,0.0,3.0,59,0.00,,,0.00,VWS V14.01,2013-04-23 14:00:00,
2013-04-23 07:04:00,65.2,23.1,29.46,East,99,1.0,11.0,20,0.00,,,0.00,VWS V14.01,2013-04-23 14:04:00,
2013-04-23 07:09:00,65.2,21.9,29.46,SSW,196,2.0,11.0,19,0.00,,,0.00,VWS V14.01,2013-04-23 14:09:00,
2013-04-23 07:14:00,65.2,21.9,29.46,East,82,0.0,11.0,19,0.00,,,0.00,VWS V14.01,2013-04-23 14:14:00,
2013-04-23 07:19:00,65.1,27.4,29.47,East,82,0.0,11.0,24,0.00,,,0.00,VWS V14.01,2013-04-23 14:19:00,
2013-04-23 07:24:00,64.0,26.5,29.47,East,82,0.0,11.0,24,0.00,,,0.00,VWS V14.01,2013-04-23 14:24:00,
2013-04-23 07:29:00,63.4,26.0,29.47,East,82,0.0,11.0,24,0.00,,,0.00,VWS V14.01,2013-04-23 14:29:00,
2013-04-23 07:30:00,56.7,41.7,29.49,NW,315,1.0,3.0,57,0.00,,,0.00,VWS V14.01,2013-04-23 14:30:00,
2013-04-23 07:34:00,63.6,26.2,29.47,WNW,299,0.0,11.0,24,0.00,,,0.00,VWS V14.01,2013-04-23 14:34:00,
2013-04-23 07:39:00,64.4,26.9,29.47,WSW,251,0.0,11.0,24,0.00,,,0.00,VWS V14.01,2013-04-23 14:39:00,
2013-04-23 07:44:00,64.9,27.3,29.48,WSW,246,0.0,11.0,24,0.00,,,0.00,VWS V14.01,2013-04-23 14:44:00,
2013-04-23 07:56:00,65.0,28.4,29.47,East,90,1.0,7.0,25,0.00,,,0.00,VWS V14.01,2013-04-23 14:56:00,
2013-04-23 08:00:00,56.7,42.5,29.50,NW,315,0.0,2.0,59,0.00,,,0.00,VWS V14.01,2013-04-23 15:00:00,
2013-04-23 08:01:00,66.2,25.1,29.47,SSW,195,2.0,8.0,21,0.00,,,0.00,VWS V14.01,2013-04-23 15:01:00,
2013-04-23 08:06:00,66.5,25.4,29.48,SSW,197,5.0,8.0,21,0.00,,,0.00,VWS V14.01,2013-04-23 15:06:00,
2013-04-23 08:11:00,66.8,22.0,29.48,SSW,195,2.0,8.0,18,0.00,,,0.00,VWS V14.01,2013-04-23 15:11:00,
2013-04-23 08:16:00,67.2,20.9,29.48,SSW,198,0.0,8.0,17,0.00,,,0.00,VWS V14.01,2013-04-23 15:16:00,
2013-04-23 08:21:00,67.4,21.1,29.48,SSW,200,1.0,9.0,17,0.00,,,0.00,VWS V14.01,2013-04-23 15:21:00,
2013-04-23 08:26:00,67.6,21.3,29.48,SSW,196,1.0,9.0,17,0.00,,,0.00,VWS V14.01,2013-04-23 15:26:00,
2013-04-23 08:30:00,56.9,42.3,29.51,NW,315,0.0,0.0,58,0.00,,,0.00,VWS V14.01,2013-04-23 15:30:00,
2013-04-23 08:31:00,67.7,21.4,29.49,SSW,197,3.0,10.0,17,0.00,,,0.00,VWS V14.01,2013-04-23 15:31:00,
2013-04-23 08:36:00,67.9,21.5,29.48,SSW,196,3.0,10.0,17,0.00,,,0.00,VWS V14.01,2013-04-23 15:36:00,
2013-04-23 08:41:00,68.1,21.7,29.49,SSW,194,3.0,10.0,17,0.00,,,0.00,VWS V14.01,2013-04-23 15:41:00,
2013-04-23 08:46:00,68.2,20.3,29.49,South,190,6.0,11.0,16,0.00,,,0.00,VWS V14.01,2013-04-23 15:46:00,
2013-04-23 08:51:00,68.1,21.7,29.49,SSW,193,9.0,11.0,17,0.00,,,0.00,VWS V14.01,2013-04-23 15:51:00,
2013-04-23 08:56:00,68.3,21.8,29.49,SSW,196,1.0,11.0,17,0.00,,,0.00,VWS V14.01,2013-04-23 15:56:00,
2013-04-23 09:00:00,58.7,42.6,29.51,NW,315,0.0,0.0,55,0.00,,,0.00,VWS V14.01,2013-04-23 16:00:00,
2013-04-23 09:01:00,68.7,23.5,29.49,SSW,195,0.0,11.0,18,0.00,,,0.00,VWS V14.01,2013-04-23 16:01:00,
2013-04-23 09:06:00,69.0,21.0,29.49,SSW,193,10.0,11.0,16,0.00,,,0.00,VWS V14.01,2013-04-23 16:06:00,
2013-04-23 09:11:00,69.0,17.9,29.49,SSW,192,6.0,13.0,14,0.00,,,0.00,VWS V14.01,2013-04-23 16:11:00,
2013-04-23 09:16:00,69.1,21.1,29.49,SSW,193,4.0,13.0,16,0.00,,,0.00,VWS V14.01,2013-04-23 16:16:00,
2013-04-23 09:21:00,69.5,19.9,29.49,NNE,33,2.0,13.0,15,0.00,,,0.00,VWS V14.01,2013-04-23 16:21:00,
2013-04-23 09:26:00,69.8,20.1,29.49,SSW,195,3.0,13.0,15,0.00,,,0.00,VWS V14.01,2013-04-23 16:26:00,
2013-04-23 09:30:00,61.5,44.2,29.52,NW,315,0.0,2.0,53,0.00,,,0.00,VWS V14.01,2013-04-23 16:30:00,
2013-04-23 09:31:00,70.0,20.3,29.50,SSW,195,2.0,13.0,15,0.00,,,0.00,VWS V14.01,2013-04-23 16:31:00,
2013-04-23 09:36:00,70.2,18.8,29.50,SSW,193,6.0,13.0,14,0.00,,,0.00,VWS V14.01,2013-04-23 16:36:00,
2013-04-23 09:41:00,70.2,20.4,29.49,SSW,194,4.0,13.0,15,0.00,,,0.00,VWS V14.01,2013-04-23 16:41:00,
2013-04-23 09:46:00,70.3,20.5,29.50,SSW,196,3.0,13.0,15,0.00,,,0.00,VWS V14.01,2013-04-23 16:46:00,
2013-04-23 09:51:00,70.4,20.6,29.50,SSW,196,1.0,13.0,15,0.00,,,0.00,VWS V14.01,2013-04-23 16:51:00,
2013-04-23 09:56:00,70.6,17.4,29.50,NNE,33,4.0,13.0,13,0.00,,,0.00,VWS V14.01,2013-04-23 16:56:00,
2013-04-23 10:00:00,66.3,46.0,29.52,NW,315,0.0,3.0,48,0.00,,,0.00,VWS V14.01,2013-04-23 17:00:00,
2013-04-23 10:01:00,70.5,19.0,29.50,ESE,119,8.0,13.0,14,0.00,,,0.00,VWS V14.01,2013-04-23 17:01:00,
2013-04-23 10:06:00,70.6,17.4,29.50,ESE,103,3.0,13.0,13,0.00,,,0.00,VWS V14.01,2013-04-23 17:06:00,
2013-04-23 10:11:00,70.6,19.1,29.49,ESE,107,2.0,13.0,14,0.00,,,0.00,VWS V14.01,2013-04-23 17:11:00,
2013-04-23 10:16:00,70.6,19.1,29.49,ESE,104,2.0,13.0,14,0.00,,,0.00,VWS V14.01,2013-04-23 17:16:00,
2013-04-23 10:21:00,71.1,19.5,29.49,ESE,108,4.0,13.0,14,0.00,,,0.00,VWS V14.01,2013-04-23 17:21:00,
2013-04-23 10:26:00,71.7,18.3,29.49,ESE,108,4.0,13.0,13,0.00,,,0.00,VWS V14.01,2013-04-23 17:26:00,
2013-04-23 10:30:00,70.7,47.1,29.52,NW,315,0.0,2.0,43,0.00,,,0.00,VWS V14.01,2013-04-23 17:30:00,
2013-04-23 10:31:00,71.9,20.2,29.49,ESE,108,2.0,13.0,14,0.00,,,0.00,VWS V14.01,2013-04-23 17:31:00,
2013-04-23 10:36:00,72.2,18.7,29.50,ESE,107,1.0,13.0,13,0.00,,,0.00,VWS V14.01,2013-04-23 17:36:00,
2013-04-23 10:41:00,72.5,20.6,29.49,SSW,212,0.0,13.0,14,0.00,,,0.00,VWS V14.01,2013-04-23 17:41:00,
2013-04-23 10:46:00,72.7,19.1,29.50,SSW,198,0.0,13.0,13,0.00,,,0.00,VWS V14.01,2013-04-23 17:46:00,
2013-04-23 10:51:00,72.8,17.3,29.49,SSW,195,1.0,13.0,12,0.00,,,0.00,VWS V14.01,2013-04-23 17:51:00,
2013-04-23 10:56:00,72.7,19.1,29.49,SSW,196,4.0,13.0,13,0.00,,,0.00,VWS V14.01,2013-04-23 17:56:00,
2013-04-23 11:00:00,74.0,43.1,29.52,NW,315,0.0,2.0,33,0.00,,,0.00,VWS V14.01,2013-04-23 18:00:00,
2013-04-23 11:01:00,73.2,19.5,29.49,NW,322,4.0,13.0,13,0.00,,,0.00,VWS V14.01,2013-04-23 18:01:00,
2013-04-23 11:06:00,73.5,23.1,29.50,SSW,213,1.0,13.0,15,0.00,,,0.00,VWS V14.01,2013-04-23 18:06:00,
2013-04-23 11:11:00,73.9,18.1,29.50,SSW,192,3.0,13.0,12,0.00,,,0.00,VWS V14.01,2013-04-23 18:11:00,
2013-04-23 11:16:00,73.9,20.0,29.50,SSW,202,0.0,13.0,13,0.00,,,0.00,VWS V14.01,2013-04-23 18:16:00,
2013-04-23 11:21:00,75.0,22.6,29.50,SSW,195,1.0,13.0,14,0.00,,,0.00,VWS V14.01,2013-04-23 18:21:00,
2013-04-23 11:26:00,75.4,19.3,29.50,NE,51,5.0,13.0,12,0.00,,,0.00,VWS V14.01,2013-04-23 18:26:00,
2013-04-23 11:30:00,76.1,44.9,29.52,NW,315,0.0,3.0,33,0.00,,,0.00,VWS V14.01,2013-04-23 18:30:00,
2013-04-23 11:31:00,74.9,20.8,29.50,East,101,5.0,13.0,13,0.00,,,0.00,VWS V14.01,2013-04-23 18:31:00,
2013-04-23 11:36:00,74.7,16.7,29.49,ESE,107,2.0,13.0,11,0.00,,,0.00,VWS V14.01,2013-04-23 18:36:00,
2013-04-23 11:41:00,75.1,20.9,29.49,ESE,106,1.0,13.0,13,0.00,,,0.00,VWS V14.01,2013-04-23 18:41:00,
2013-04-23 11:46:00,76.1,17.8,29.49,ESE,107,6.0,13.0,11,0.00,,,0.00,VWS V14.01,2013-04-23 18:46:00,
2013-04-23 11:51:00,76.2,19.9,29.49,ESE,107,3.0,13.0,12,0.00,,,0.00,VWS V14.01,2013-04-23 18:51:00,
2013-04-23 11:56:00,76.2,17.9,29.49,ESE,108,3.0,13.0,11,0.00,,,0.00,VWS V14.01,2013-04-23 18:56:00,
2013-04-23 12:00:00,77.7,42.9,29.52,NW,315,0.0,4.0,29,0.00,,,0.00,VWS V14.01,2013-04-23 19:00:00,
2013-04-23 12:01:00,76.2,21.8,29.49,ESE,108,2.0,13.0,13,0.00,,,0.00,VWS V14.01,2013-04-23 19:01:00,
2013-04-23 12:06:00,76.9,18.4,29.49,ESE,107,3.0,13.0,11,0.00,,,0.00,VWS V14.01,2013-04-23 19:06:00,
2013-04-23 12:11:00,76.4,18.0,29.49,SW,215,1.0,13.0,11,0.00,,,0.00,VWS V14.01,2013-04-23 19:11:00,
2013-04-23 12:16:00,76.2,17.9,29.49,SSW,194,7.0,13.0,11,0.00,,,0.00,VWS V14.01,2013-04-23 19:16:00,
2013-04-23 12:21:00,76.0,17.7,29.48,SSW,196,1.0,13.0,11,0.00,,,0.00,VWS V14.01,2013-04-23 19:21:00,
2013-04-23 12:26:00,76.4,18.0,29.48,SSW,196,0.0,13.0,11,0.00,,,0.00,VWS V14.01,2013-04-23 19:26:00,
2013-04-23 12:30:00,78.7,41.9,29.52,SSE,158,1.0,6.0,27,0.00,,,0.00,VWS V14.01,2013-04-23 19:30:00,
2013-04-23 12:31:00,76.5,20.2,29.48,SSW,195,0.0,13.0,12,0.00,,,0.00,VWS V14.01,2013-04-23 19:31:00,
2013-04-23 12:36:00,77.4,18.8,29.48,SSW,194,2.0,13.0,11,0.00,,,0.00,VWS V14.01,2013-04-23 19:36:00,
2013-04-23 12:41:00,77.6,19.0,29.48,North,8,3.0,13.0,11,0.00,,,0.00,VWS V14.01,2013-04-23 19:41:00,
2013-04-23 12:46:00,77.8,19.1,29.47,SSW,196,4.0,13.0,11,0.00,,,0.00,VWS V14.01,2013-04-23 19:46:00,
2013-04-23 12:51:00,77.4,18.8,29.47,SSW,210,0.0,13.0,11,0.00,,,0.00,VWS V14.01,2013-04-23 19:51:00,
2013-04-23 12:56:00,77.4,18.8,29.47,SSW,194,2.0,13.0,11,0.00,,,0.00,VWS V14.01,2013-04-23 19:56:00,
2013-04-23 13:00:00,80.7,37.2,29.50,SE,135,1.0,7.0,21,0.00,,,0.00,VWS V14.01,2013-04-23 20:00:00,
2013-04-23 13:01:00,77.0,18.5,29.46,SSW,193,0.0,13.0,11,0.00,,,0.00,VWS V14.01,2013-04-23 20:01:00,
2013-04-23 13:06:00,77.4,18.8,29.47,SSW,194,2.0,13.0,11,0.00,,,0.00,VWS V14.01,2013-04-23 20:06:00,
2013-04-23 13:11:00,77.7,19.0,29.46,SSW,196,0.0,13.0,11,0.00,,,0.00,VWS V14.01,2013-04-23 20:11:00,
2013-04-23 13:16:00,78.2,23.4,29.46,SSW,195,0.0,13.0,13,0.00,,,0.00,VWS V14.01,2013-04-23 20:16:00,
2013-04-23 13:21:00,78.9,25.7,29.46,SSW,200,2.0,13.0,14,0.00,,,0.00,VWS V14.01,2013-04-23 20:21:00,
2013-04-23 13:26:00,79.2,25.9,29.45,WSW,257,0.0,13.0,14,0.00,,,0.00,VWS V14.01,2013-04-23 20:26:00,
2013-04-23 13:30:00,83.0,36.5,29.49,SE,135,1.0,7.0,19,0.00,,,0.00,VWS V14.01,2013-04-23 20:30:00,
2013-04-23 13:31:00,79.8,29.7,29.45,SSW,195,1.0,13.0,16,0.00,,,0.00,VWS V14.01,2013-04-23 20:31:00,
2013-04-23 13:36:00,80.1,29.9,29.45,SSW,194,3.0,13.0,16,0.00,,,0.00,VWS V14.01,2013-04-23 20:36:00,
2013-04-23 13:41:00,79.6,31.0,29.45,SSW,193,3.0,13.0,17,0.00,,,0.00,VWS V14.01,2013-04-23 20:41:00,
2013-04-23 13:46:00,79.3,30.8,29.45,SSW,206,0.0,13.0,17,0.00,,,0.00,VWS V14.01,2013-04-23 20:46:00,
2013-04-23 13:51:00,79.4,27.8,29.45,SSW,193,2.0,13.0,15,0.00,,,0.00,VWS V14.01,2013-04-23 20:51:00,
2013-04-23 13:56:00,79.2,27.6,29.45,SSW,194,1.0,13.0,15,0.00,,,0.00,VWS V14.01,2013-04-23 20:56:00,
2013-04-23 14:00:00,85.2,37.0,29.48,SSE,158,1.0,4.0,18,0.00,,,0.00,VWS V14.01,2013-04-23 21:00:00,
2013-04-23 14:01:00,79.6,31.0,29.44,SSW,195,2.0,13.0,17,0.00,,,0.00,VWS V14.01,2013-04-23 21:01:00,
2013-04-23 14:07:00,79.1,30.6,29.44,SSW,197,1.0,13.0,17,0.00,,,0.00,VWS V14.01,2013-04-23 21:07:00,
2013-04-23 14:12:00,78.7,30.3,29.44,SSW,198,3.0,13.0,17,0.00,,,0.00,VWS V14.01,2013-04-23 21:12:00,
2013-04-23 14:17:00,78.8,27.3,29.44,SSW,208,2.0,13.0,15,0.00,,,0.00,VWS V14.01,2013-04-23 21:17:00,
2013-04-23 14:22:00,79.4,29.3,29.44,SSW,207,0.0,13.0,16,0.00,,,0.00,VWS V14.01,2013-04-23 21:22:00,
2013-04-23 14:27:00,80.0,32.7,29.44,SSW,196,4.0,13.0,18,0.00,,,0.00,VWS V14.01,2013-04-23 21:27:00,
2013-04-23 14:30:00,84.5,37.8,29.47,SSE,158,1.0,7.0,19,0.00,,,0.00,VWS V14.01,2013-04-23 21:30:00,
2013-04-23 14:32:00,79.8,33.9,29.44,SSW,200,1.0,13.0,19,0.00,,,0.00,VWS V14.01,2013-04-23 21:32:00,
2013-04-23 14:37:00,79.6,32.4,29.44,SSW,194,1.0,13.0,18,0.00,,,0.00,VWS V14.01,2013-04-23 21:37:00,
2013-04-23 14:42:00,79.1,34.6,29.44,SW,229,1.0,13.0,20,0.00,,,0.00,VWS V14.01,2013-04-23 21:42:00,
2013-04-23 14:47:00,79.7,33.8,29.44,SW,229,1.0,13.0,19,0.00,,,0.00,VWS V14.01,2013-04-23 21:47:00,
2013-04-23 14:52:00,80.0,34.1,29.44,SW,221,0.0,13.0,19,0.00,,,0.00,VWS V14.01,2013-04-23 21:52:00,
2013-04-23 14:57:00,80.3,40.3,29.44,SW,224,3.0,13.0,24,0.00,,,0.00,VWS V14.01,2013-04-23 21:57:00,
2013-04-23 15:00:00,85.2,37.0,29.45,SSE,158,1.0,8.0,18,0.00,,,0.00,VWS V14.01,2013-04-23 22:00:00,
2013-04-23 15:02:00,81.5,41.3,29.44,SW,225,0.0,13.0,24,0.00,,,0.00,VWS V14.01,2013-04-23 22:02:00,
2013-04-23 15:07:00,82.4,43.1,29.43,SW,232,4.0,13.0,25,0.00,,,0.00,VWS V14.01,2013-04-23 22:07:00,
2013-04-23 15:12:00,82.7,44.4,29.43,SW,233,1.0,13.0,26,0.00,,,0.00,VWS V14.01,2013-04-23 22:12:00,
2013-04-23 15:17:00,82.7,42.3,29.43,SW,236,3.0,13.0,24,0.00,,,0.00,VWS V14.01,2013-04-23 22:17:00,
2013-04-23 15:22:00,82.2,41.8,29.43,West,263,3.0,13.0,24,0.00,,,0.00,VWS V14.01,2013-04-23 22:22:00,
2013-04-23 15:27:00,81.3,41.1,29.43,West,273,2.0,13.0,24,0.00,,,0.00,VWS V14.01,2013-04-23 22:27:00,
2013-04-23 15:30:00,86.2,37.8,29.44,SSE,158,1.0,6.0,18,0.00,,,0.00,VWS V14.01,2013-04-23 22:30:00,
2013-04-23 15:32:00,81.2,43.1,29.43,West,273,2.0,13.0,26,0.00,,,0.00,VWS V14.01,2013-04-23 22:32:00,
2013-04-23 15:37:00,81.7,43.5,29.42,West,273,2.0,13.0,26,0.00,,,0.00,VWS V14.01,2013-04-23 22:37:00,
2013-04-23 15:42:00,82.2,42.9,29.43,West,273,0.0,13.0,25,0.00,,,0.00,VWS V14.01,2013-04-23 22:42:00,
2013-04-23 15:47:00,82.6,42.2,29.43,West,273,1.0,13.0,24,0.00,,,0.00,VWS V14.01,2013-04-23 22:47:00,
2013-04-23 15:52:00,82.7,42.3,29.43,West,273,0.0,13.0,24,0.00,,,0.00,VWS V14.01,2013-04-23 22:52:00,
2013-04-23 15:57:00,82.1,41.8,29.43,West,273,2.0,13.0,24,0.00,,,0.00,VWS V14.01,2013-04-23 22:57:00,
2013-04-23 16:00:00,86.5,40.7,29.43,SSE,158,2.0,10.0,20,0.00,,,0.00,VWS V14.01,2013-04-23 23:00:00,
2013-04-23 16:02:00,81.9,40.5,29.42,West,274,4.0,13.0,23,0.00,,,0.00,VWS V14.01,2013-04-23 23:02:00,
2013-04-23 16:07:00,81.7,41.4,29.42,West,276,2.0,13.0,24,0.00,,,0.00,VWS V14.01,2013-04-23 23:07:00,
2013-04-23 16:12:00,81.1,40.9,29.42,West,281,4.0,13.0,24,0.00,,,0.00,VWS V14.01,2013-04-23 23:12:00,
2013-04-23 16:17:00,80.4,40.3,29.42,WNW,295,3.0,13.0,24,0.00,,,0.00,VWS V14.01,2013-04-23 23:17:00,
2013-04-23 16:22:00,79.7,40.8,29.42,WNW,299,2.0,13.0,25,0.00,,,0.00,VWS V14.01,2013-04-23 23:22:00,
2013-04-23 16:27:00,78.9,40.1,29.42,NW,315,4.0,13.0,25,0.00,,,0.00,VWS V14.01,2013-04-23 23:27:00,
2013-04-23 16:30:00,85.5,41.2,29.42,SSE,158,1.0,6.0,21,0.00,,,0.00,VWS V14.01,2013-04-23 23:30:00,
2013-04-23 16:32:00,77.8,40.2,29.41,NW,320,2.0,13.0,26,0.00,,,0.00,VWS V14.01,2013-04-23 23:32:00,
2013-04-23 16:37:00,77.3,39.8,29.42,NW,322,4.0,13.0,26,0.00,,,0.00,VWS V14.01,2013-04-23 23:37:00,
2013-04-23 16:42:00,76.8,38.3,29.42,NNW,327,3.0,13.0,25,0.00,,,0.00,VWS V14.01,2013-04-23 23:42:00,
2013-04-23 16:47:00,76.5,39.1,29.41,NW,326,3.0,13.0,26,0.00,,,0.00,VWS V14.01,2013-04-23 23:47:00,
2013-04-23 16:52:00,76.0,37.7,29.41,NW,325,7.0,13.0,25,0.00,,,0.00,VWS V14.01,2013-04-23 23:52:00,
2013-04-23 16:57:00,75.3,38.1,29.42,NW,324,7.0,13.0,26,0.00,,,0.00,VWS V14.01,2013-04-23 23:57:00,
2013-04-23 17:00:00,86.6,44.4,29.41,SSE,158,1.0,6.0,23,0.00,,,0.00,VWS V14.01,2013-04-24 00:00:00,
2013-04-23 17:02:00,74.5,36.4,29.42,NNW,327,7.0,13.0,25,0.00,,,0.00,VWS V14.01,2013-04-24 00:02:00,
2013-04-23 17:07:00,74.0,37.9,29.41,NW,323,9.0,13.0,27,0.00,,,0.00,VWS V14.01,2013-04-24 00:07:00,
2013-04-23 17:12:00,73.4,36.5,29.42,NNW,327,4.0,13.0,26,0.00,,,0.00,VWS V14.01,2013-04-24 00:12:00,
2013-04-23 17:17:00,73.1,36.2,29.42,NW,325,7.0,13.0,26,0.00,,,0.00,VWS V14.01,2013-04-24 00:17:00,
2013-04-23 17:22:00,72.8,36.0,29.42,NNW,327,4.0,13.0,26,0.00,,,0.00,VWS V14.01,2013-04-24 00:22:00,
2013-04-23 17:27:00,72.9,36.0,29.42,NNW,336,4.0,13.0,26,0.00,,,0.00,VWS V14.01,2013-04-24 00:27:00,
2013-04-23 17:30:00,87.8,44.3,29.40,WNW,292,3.0,7.0,22,0.00,,,0.00,VWS V14.01,2013-04-24 00:30:00,
2013-04-23 17:32:00,73.2,36.3,29.41,NNW,342,4.0,13.0,26,0.00,,,0.00,VWS V14.01,2013-04-24 00:32:00,
2013-04-23 17:37:00,73.2,37.2,29.42,NNW,339,5.0,13.0,27,0.00,,,0.00,VWS V14.01,2013-04-24 00:37:00,
2013-04-23 17:42:00,73.2,37.2,29.42,NNW,348,7.0,13.0,27,0.00,,,0.00,VWS V14.01,2013-04-24 00:42:00,
2013-04-23 17:47:00,72.9,37.0,29.42,North,349,5.0,13.0,27,0.00,,,0.00,VWS V14.01,2013-04-24 00:47:00,
2013-04-23 17:52:00,72.6,37.7,29.42,NNW,342,5.0,13.0,28,0.00,,,0.00,VWS V14.01,2013-04-24 00:52:00,
2013-04-23 17:57:00,72.3,36.5,29.42,NNW,348,4.0,13.0,27,0.00,,,0.00,VWS V14.01,2013-04-24 00:57:00,
2013-04-23 18:00:00,86.6,42.1,29.39,WNW,292,4.0,9.0,21,0.00,,,0.00,VWS V14.01,2013-04-24 01:00:00,
2013-04-23 18:02:00,72.0,37.1,29.42,NNW,340,6.0,13.0,28,0.00,,,0.00,VWS V14.01,2013-04-24 01:02:00,
2013-04-23 18:07:00,71.6,36.8,29.42,NNW,333,5.0,13.0,28,0.00,,,0.00,VWS V14.01,2013-04-24 01:07:00,
2013-04-23 18:12:00,71.4,36.6,29.41,NNW,348,6.0,13.0,28,0.00,,,0.00,VWS V14.01,2013-04-24 01:12:00,
2013-04-23 18:17:00,71.0,36.3,29.42,NNW,332,8.0,13.0,28,0.00,,,0.00,VWS V14.01,2013-04-24 01:17:00,
2013-04-23 18:22:00,70.6,36.8,29.42,NNW,345,2.0,13.0,29,0.00,,,0.00,VWS V14.01,2013-04-24 01:22:00,
2013-04-23 18:27:00,70.1,36.4,29.42,NNW,330,2.0,13.0,29,0.00,,,0.00,VWS V14.01,2013-04-24 01:27:00,
2013-04-23 18:30:00,85.7,43.7,29.39,WNW,292,3.0,7.0,23,0.00,,,0.00,VWS V14.01,2013-04-24 01:30:00,
2013-04-23 18:32:00,69.7,36.9,29.42,North,354,4.0,13.0,30,0.00,,,0.00,VWS V14.01,2013-04-24 01:32:00,
2013-04-23 18:37:00,69.6,36.0,29.42,NNW,341,4.0,13.0,29,0.00,,,0.00,VWS V14.01,2013-04-24 01:37:00,
2013-04-23 18:42:00,69.4,35.8,29.42,NNW,339,3.0,13.0,29,0.00,,,0.00,VWS V14.01,2013-04-24 01:42:00,
2013-04-23 18:47:00,68.7,36.0,29.42,NNW,334,5.0,13.0,30,0.00,,,0.00,VWS V14.01,2013-04-24 01:47:00,
2013-04-23 18:52:00,68.0,35.4,29.42,North,350,1.0,13.0,30,0.00,,,0.00,VWS V14.01,2013-04-24 01:52:00,
2013-04-23 18:57:00,67.6,35.1,29.42,North,350,0.0,13.0,30,0.00,,,0.00,VWS V14.01,2013-04-24 01:57:00,
2013-04-23 19:00:00,84.0,43.4,29.39,NNW,338,3.0,8.0,24,0.00,,,0.00,VWS V14.01,2013-04-24 02:00:00,
2013-04-23 19:02:00,67.4,35.7,29.42,North,350,1.0,13.0,31,0.00,,,0.00,VWS V14.01,2013-04-24 02:02:00,
2013-04-23 19:07:00,67.1,36.3,29.41,North,350,1.0,13.0,32,0.00,,,0.00,VWS V14.01,2013-04-24 02:07:00,
2013-04-23 19:12:00,67.0,35.4,29.42,NNW,344,2.0,13.0,31,0.00,,,0.00,VWS V14.01,2013-04-24 02:12:00,
2013-04-23 19:17:00,66.7,34.3,29.41,North,354,4.0,13.0,30,0.00,,,0.00,VWS V14.01,2013-04-24 02:17:00,
2013-04-23 19:22:00,66.2,33.9,29.41,North,350,2.0,13.0,30,0.00,,,0.00,VWS V14.01,2013-04-24 02:22:00,
2013-04-23 19:27:00,65.9,34.4,29.42,NNW,348,2.0,13.0,31,0.00,,,0.00,VWS V14.01,2013-04-24 02:27:00,
2013-04-23 19:30:00,82.6,45.3,29.39,NNW,338,3.0,7.0,27,0.00,,,0.00,VWS V14.01,2013-04-24 02:30:00,
2013-04-23 19:32:00,65.5,34.9,29.41,NNW,348,2.0,13.0,32,0.00,,,0.00,VWS V14.01,2013-04-24 02:32:00,
2013-04-23 19:37:00,64.9,34.4,29.41,NNW,340,4.0,13.0,32,0.00,,,0.00,VWS V14.01,2013-04-24 02:37:00,
2013-04-23 19:42:00,64.3,34.6,29.41,North,351,4.0,13.0,33,0.00,,,0.00,VWS V14.01,2013-04-24 02:42:00,
2013-04-23 19:52:00,62.9,33.4,29.42,NNW,339,1.0,13.0,33,0.00,,,0.00,VWS V14.01,2013-04-24 02:52:00,
2013-04-23 20:00:00,80.3,44.3,29.39,NNW,338,2.0,6.0,28,0.00,,,0.00,VWS V14.01,2013-04-24 03:00:00,
2013-04-23 20:03:00,62.0,32.6,29.42,North,352,2.0,13.0,33,0.00,,,0.00,VWS V14.01,2013-04-24 03:03:00,
2013-04-23 20:13:00,61.4,32.8,29.42,NNW,345,1.0,13.0,34,0.00,,,0.00,VWS V14.01,2013-04-24 03:13:00,
2013-04-23 20:18:00,61.2,33.3,29.42,NNW,344,4.0,13.0,35,0.00,,,0.00,VWS V14.01,2013-04-24 03:18:00,
2013-04-23 20:30:00,76.1,42.5,29.40,NNW,338,3.0,7.0,30,0.00,,,0.00,VWS V14.01,2013-04-24 03:30:00,
2013-04-23 20:33:00,60.5,33.4,29.42,NNW,344,0.0,13.0,36,0.00,,,0.00,VWS V14.01,2013-04-24 03:33:00,
2013-04-23 20:38:00,60.1,33.8,29.42,NNW,344,0.0,13.0,37,0.00,,,0.00,VWS V14.01,2013-04-24 03:38:00,
2013-04-23 20:43:00,59.9,33.6,29.43,NNW,344,1.0,13.0,37,0.00,,,0.00,VWS V14.01,2013-04-24 03:43:00,
2013-04-23 20:48:00,59.8,33.5,29.43,NNW,344,0.0,13.0,37,0.00,,,0.00,VWS V14.01,2013-04-24 03:48:00,
2013-04-23 20:53:00,59.5,32.5,29.43,NNW,344,1.0,13.0,36,0.00,,,0.00,VWS V14.01,2013-04-24 03:53:00,
2013-04-23 20:58:00,59.3,32.4,29.43,NNW,344,0.0,13.0,36,0.00,,,0.00,VWS V14.01,2013-04-24 03:58:00,
2013-04-23 21:00:00,73.1,42.3,29.41,NNW,338,2.0,6.0,33,0.00,,,0.00,VWS V14.01,2013-04-24 04:00:00,
2013-04-23 21:03:00,59.2,32.3,29.43,NNW,344,2.0,13.0,36,0.00,,,0.00,VWS V14.01,2013-04-24 04:03:00,
2013-04-23 21:08:00,59.2,33.0,29.43,NNW,344,0.0,13.0,37,0.00,,,0.00,VWS V14.01,2013-04-24 04:08:00,
2013-04-23 21:13:00,59.0,33.5,29.44,NNW,344,0.0,13.0,38,0.00,,,0.00,VWS V14.01,2013-04-24 04:13:00,
2013-04-23 21:18:00,58.9,34.0,29.44,NNW,344,0.0,13.0,39,0.00,,,0.00,VWS V14.01,2013-04-24 04:18:00,
2013-04-23 21:23:00,58.5,34.9,29.44,NNW,344,0.0,13.0,41,0.00,,,0.00,VWS V14.01,2013-04-24 04:23:00,
2013-04-23 21:28:00,58.2,35.2,29.44,NNW,344,0.0,13.0,42,0.00,,,0.00,VWS V14.01,2013-04-24 04:28:00,
2013-04-23 21:30:00,70.6,42.4,29.41,NNW,338,1.0,3.0,36,0.00,,,0.00,VWS V14.01,2013-04-24 04:30:00,
2013-04-23 21:33:00,57.8,35.5,29.44,NNW,344,0.0,13.0,43,0.00,,,0.00,VWS V14.01,2013-04-24 04:33:00,
2013-04-23 21:38:00,57.4,35.7,29.44,NNW,344,0.0,13.0,44,0.00,,,0.00,VWS V14.01,2013-04-24 04:38:00,
2013-04-23 21:43:00,57.1,36.0,29.44,NNW,344,0.0,13.0,45,0.00,,,0.00,VWS V14.01,2013-04-24 04:43:00,
2013-04-23 21:48:00,56.8,36.3,29.43,NNW,344,0.0,13.0,46,0.00,,,0.00,VWS V14.01,2013-04-24 04:48:00,
2013-04-23 21:53:00,56.5,36.5,29.43,NNW,344,0.0,13.0,47,0.00,,,0.00,VWS V14.01,2013-04-24 04:53:00,
2013-04-23 21:58:00,56.2,37.8,29.43,NNW,344,0.0,13.0,50,0.00,,,0.00,VWS V14.01,2013-04-24 04:58:00,
2013-04-23 22:00:00,69.0,41.7,29.42,NNW,338,0.0,3.0,37,0.00,,,0.00,VWS V14.01,2013-04-24 05:00:00,
2013-04-23 22:03:00,55.8,37.5,29.44,NNW,344,0.0,13.0,50,0.00,,,0.00,VWS V14.01,2013-04-24 05:03:00,
2013-04-23 22:08:00,55.3,40.3,29.44,NNW,344,0.0,13.0,57,0.00,,,0.00,VWS V14.01,2013-04-24 05:08:00,
2013-04-23 22:13:00,54.5,40.5,29.44,NNW,344,0.0,13.0,59,0.00,,,0.00,VWS V14.01,2013-04-24 05:13:00,
2013-04-23 22:18:00,54.0,40.4,29.43,NNW,344,0.0,13.0,60,0.00,,,0.00,VWS V14.01,2013-04-24 05:18:00,
2013-04-23 22:23:00,53.7,41.0,29.44,NNW,344,0.0,13.0,62,0.00,,,0.00,VWS V14.01,2013-04-24 05:23:00,
2013-04-23 22:28:00,53.3,41.0,29.44,NNW,344,0.0,13.0,63,0.00,,,0.00,VWS V14.01,2013-04-24 05:28:00,
2013-04-23 22:30:00,67.3,40.8,29.42,NNW,338,0.0,0.0,38,0.00,,,0.00,VWS V14.01,2013-04-24 05:30:00,
2013-04-23 22:33:00,53.0,41.2,29.44,NNW,344,0.0,13.0,64,0.00,,,0.00,VWS V14.01,2013-04-24 05:33:00,
2013-04-23 22:39:00,52.8,41.0,29.44,NNW,344,0.0,13.0,64,0.00,,,0.00,VWS V14.01,2013-04-24 05:39:00,
2013-04-23 22:44:00,52.7,40.9,29.44,NNW,344,0.0,13.0,64,0.00,,,0.00,VWS V14.01,2013-04-24 05:44:00,
2013-04-23 22:49:00,52.5,40.7,29.44,NNW,344,0.0,13.0,64,0.00,,,0.00,VWS V14.01,2013-04-24 05:49:00,
2013-04-23 22:54:00,52.2,40.4,29.44,NNW,344,0.0,13.0,64,0.00,,,0.00,VWS V14.01,2013-04-24 05:54:00,
2013-04-23 22:59:00,52.0,40.6,29.44,NNW,344,0.0,13.0,65,0.00,,,0.00,VWS V14.01,2013-04-24 05:59:00,
2013-04-23 23:00:00,66.2,42.5,29.43,NNW,338,0.0,0.0,42,0.00,,,0.00,VWS V14.01,2013-04-24 06:00:00,
2013-04-23 23:04:00,51.8,40.8,29.44,NNW,344,0.0,13.0,66,0.00,,,0.00,VWS V14.01,2013-04-24 06:04:00,
2013-04-23 23:09:00,51.6,40.6,29.43,NNW,344,0.0,13.0,66,0.00,,,0.00,VWS V14.01,2013-04-24 06:09:00,
2013-04-23 23:14:00,51.3,40.7,29.44,NNW,344,0.0,13.0,67,0.00,,,0.00,VWS V14.01,2013-04-24 06:14:00,
2013-04-23 23:19:00,51.2,40.6,29.43,NNW,344,0.0,13.0,67,0.00,,,0.00,VWS V14.01,2013-04-24 06:19:00,
2013-04-23 23:24:00,51.1,40.5,29.43,NNW,344,0.0,13.0,67,0.00,,,0.00,VWS V14.01,2013-04-24 06:24:00,
2013-04-23 23:29:00,50.7,40.2,29.43,NNW,344,0.0,13.0,67,0.00,,,0.00,VWS V14.01,2013-04-24 06:29:00,
2013-04-23 23:30:00,64.3,44.8,29.42,NNW,338,0.0,0.0,49,0.00,,,0.00,VWS V14.01,2013-04-24 06:30:00,
2013-04-23 23:34:00,50.4,40.6,29.43,NNW,344,0.0,13.0,69,0.00,,,0.00,VWS V14.01,2013-04-24 06:34:00,
2013-04-23 23:39:00,50.2,40.4,29.43,NNW,344,0.0,13.0,69,0.00,,,0.00,VWS V14.01,2013-04-24 06:39:00,
2013-04-23 23:44:00,50.1,40.3,29.43,NNW,344,0.0,13.0,69,0.00,,,0.00,VWS V14.01,2013-04-24 06:44:00,
2013-04-23 23:49:00,49.9,40.5,29.43,NNW,344,0.0,13.0,70,0.00,,,0.00,VWS V14.01,2013-04-24 06:49:00,
2013-04-23 23:54:00,49.7,40.7,29.43,NNW,344,0.0,13.0,71,0.00,,,0.00,VWS V14.01,2013-04-24 06:54:00,
2013-04-23 23:59:00,49.6,40.6,29.43,NNW,344,0.0,13.0,71,0.00,,,0.00,VWS V14.01,2013-04-24 06:59:00,